createdAt,value
2022-10-28T00:00:52.523Z,28.80
2022-10-28T00:03:40.310Z,22.40
2022-10-28T00:06:30.385Z,24.60
2022-10-28T00:09:15.512Z,22.67
2022-10-28T00:12:04.298Z,22.80
2022-10-28T00:14:49.593Z,21.83
2022-10-28T00:17:35.088Z,26.20
2022-10-28T00:20:20.434Z,34.17
2022-10-28T00:23:05.450Z,33.88
2022-10-28T00:25:51.260Z,23.23
2022-10-28T00:28:41.441Z,29.88
2022-10-28T00:31:31.284Z,33.28
2022-10-28T00:34:23.588Z,27.73
2022-10-28T00:37:09.076Z,24.48
2022-10-28T00:39:54.657Z,29.75
2022-10-28T00:42:40.103Z,28.67
2022-10-28T00:45:26.601Z,24.83
2022-10-28T00:48:12.284Z,30.73
2022-10-28T00:50:58.020Z,30.80
2022-10-28T00:53:48.117Z,36.88
2022-10-28T00:56:39.103Z,29.13
2022-10-28T00:59:33.880Z,29.35
2022-10-28T01:02:20.344Z,35.15
2022-10-28T01:05:06.237Z,27.20
2022-10-28T01:07:54.821Z,34.50
2022-10-28T01:10:45.931Z,29.35
2022-10-28T01:13:31.691Z,32.92
2022-10-28T01:16:37.460Z,24.35
2022-10-28T01:22:38.782Z,34.85
2022-10-28T01:25:47.021Z,29.52
2022-10-28T01:29:10.084Z,34.80
2022-10-28T01:32:02.646Z,33.72
2022-10-28T01:35:14.001Z,26.65
2022-10-28T01:38:17.690Z,25.20
2022-10-28T01:41:18.293Z,25.77
2022-10-28T01:44:06.385Z,29.83
2022-10-28T01:47:29.652Z,30.77
2022-10-28T01:50:25.693Z,27.73
2022-10-28T01:53:14.578Z,37.67
2022-10-28T01:56:06.764Z,28.40
2022-10-28T01:58:55.772Z,26.98
2022-10-28T02:01:43.991Z,41.63
2022-10-28T02:04:29.644Z,35.75
2022-10-28T02:07:16.458Z,31.75
2022-10-28T02:10:16.253Z,34.53
2022-10-28T02:13:06.741Z,32.30
2022-10-28T02:16:03.894Z,26.92
2022-10-28T02:19:29.568Z,28.90
2022-10-28T02:22:41.016Z,27.70
2022-10-28T02:25:34.944Z,24.27
2022-10-28T02:28:32.704Z,28.48
2022-10-28T02:31:50.483Z,23.02
2022-10-28T02:34:43.028Z,22.40
2022-10-28T02:37:31.865Z,29.25
2022-10-28T02:40:23.582Z,30.17
2022-10-28T02:43:13.224Z,33.83
2022-10-28T02:46:02.275Z,22.23
2022-10-28T02:48:57.481Z,30.08
2022-10-28T02:51:55.905Z,36.28
2022-10-28T02:55:05.774Z,27.08
2022-10-28T02:57:51.836Z,30.80
2022-10-28T03:00:37.282Z,25.65
2022-10-28T03:03:22.856Z,37.13
2022-10-28T03:06:09.048Z,24.27
2022-10-28T03:08:54.612Z,30.70
2022-10-28T03:11:40.135Z,23.20
2022-10-28T03:14:25.603Z,34.22
2022-10-28T03:17:11.477Z,36.97
2022-10-28T03:19:56.552Z,38.85
2022-10-28T03:22:44.948Z,24.73
2022-10-28T03:25:31.470Z,28.90
2022-10-28T03:28:17.095Z,34.17
2022-10-28T03:31:03.045Z,25.10
2022-10-28T03:33:48.353Z,32.17
2022-10-28T03:36:33.977Z,31.33
2022-10-28T03:39:19.213Z,32.95
2022-10-28T03:42:04.884Z,28.55
2022-10-28T03:44:50.411Z,22.40
2022-10-28T03:47:36.261Z,23.58
2022-10-28T03:50:21.616Z,27.08
2022-10-28T03:53:07.022Z,25.85
2022-10-28T03:55:57.468Z,26.52
2022-10-28T03:58:42.648Z,25.38
2022-10-28T04:01:28.292Z,21.50
2022-10-28T04:04:13.557Z,19.17
2022-10-28T04:06:58.815Z,28.63
2022-10-28T04:09:44.387Z,32.50
2022-10-28T04:12:33.462Z,27.45
2022-10-28T04:15:19.142Z,35.60
2022-10-28T04:18:05.018Z,26.92
2022-10-28T04:20:50.520Z,32.28
2022-10-28T04:23:36.079Z,37.40
2022-10-28T04:26:21.492Z,30.30
2022-10-28T04:29:07.060Z,27.98
2022-10-28T04:31:52.634Z,31.30
2022-10-28T04:34:38.184Z,28.70
2022-10-28T04:37:23.772Z,32.45
2022-10-28T04:40:09.789Z,35.55
2022-10-28T04:42:55.238Z,28.27
2022-10-28T04:45:40.851Z,26.73
2022-10-28T04:48:26.534Z,28.25
2022-10-28T04:51:11.770Z,25.17
2022-10-28T04:53:57.422Z,33.92
2022-10-28T04:56:42.725Z,29.85
2022-10-28T04:59:28.200Z,28.58
2022-10-28T05:02:13.623Z,20.73
2022-10-28T05:05:03.360Z,24.95
2022-10-28T05:07:48.968Z,27.70
2022-10-28T05:10:34.434Z,29.67
2022-10-28T05:13:20.462Z,21.75
2022-10-28T05:16:06.310Z,23.90
2022-10-28T05:18:51.964Z,27.65
2022-10-28T05:21:37.584Z,25.02
2022-10-28T05:24:22.907Z,29.95
2022-10-28T05:27:08.447Z,26.65
2022-10-28T05:29:53.811Z,25.90
2022-10-28T05:32:39.152Z,27.23
2022-10-28T05:35:24.877Z,16.75
2022-10-28T05:38:10.336Z,23.63
2022-10-28T05:40:55.983Z,21.98
2022-10-28T05:43:41.417Z,19.23
2022-10-28T05:46:27.021Z,24.90
2022-10-28T05:49:12.615Z,20.77
2022-10-28T05:51:58.239Z,27.98
2022-10-28T05:54:43.527Z,24.38
2022-10-28T05:57:29.042Z,23.92
2022-10-28T06:00:15.948Z,18.00
2022-10-28T06:03:13.550Z,27.00
2022-10-28T06:05:59.436Z,23.20
2022-10-28T06:08:46.271Z,25.52
2022-10-28T06:11:29.808Z,26.02
2022-10-28T06:14:15.230Z,23.98
2022-10-28T06:17:03.202Z,24.35
2022-10-28T06:19:48.724Z,25.45
2022-10-28T06:22:34.317Z,20.98
2022-10-28T06:25:24.600Z,27.25
2022-10-28T06:28:10.919Z,21.83
2022-10-28T06:31:05.107Z,28.48
2022-10-28T06:33:50.542Z,23.80
2022-10-28T06:36:36.534Z,20.13
2022-10-28T06:42:10.212Z,23.45
2022-10-28T06:44:55.813Z,25.42
2022-10-28T06:47:48.038Z,31.60
2022-10-28T06:50:35.073Z,25.83
2022-10-28T06:53:20.347Z,22.88
2022-10-28T06:56:06.288Z,15.63
2022-10-28T06:58:53.431Z,32.08
2022-10-28T07:01:39.076Z,23.83
2022-10-28T07:04:24.537Z,30.38
2022-10-28T07:07:09.942Z,23.98
2022-10-28T07:09:55.494Z,21.77
2022-10-28T07:12:41.006Z,22.70
2022-10-28T07:15:26.405Z,26.20
2022-10-28T07:18:11.808Z,25.52
2022-10-28T07:21:01.557Z,21.80
2022-10-28T07:23:47.325Z,24.75
2022-10-28T07:26:32.394Z,20.52
2022-10-28T07:29:18.042Z,21.75
2022-10-28T07:32:03.900Z,20.77
2022-10-28T07:34:51.674Z,21.67
2022-10-28T07:37:40.009Z,16.02
2022-10-28T07:40:26.590Z,25.80
2022-10-28T07:43:12.217Z,23.60
2022-10-28T07:45:58.018Z,19.10
2022-10-28T07:48:43.777Z,21.25
2022-10-28T07:51:34.745Z,23.40
2022-10-28T07:54:20.202Z,15.80
2022-10-28T07:57:06.064Z,16.85
2022-10-28T07:59:51.442Z,16.35
2022-10-28T08:02:36.629Z,22.85
2022-10-28T08:05:22.241Z,20.63
2022-10-28T08:08:07.631Z,26.13
2022-10-28T08:10:53.444Z,27.63
2022-10-28T08:13:40.187Z,25.13
2022-10-28T08:16:25.682Z,19.25
2022-10-28T08:19:11.329Z,22.50
2022-10-28T08:21:56.990Z,20.38
2022-10-28T08:24:42.406Z,21.33
2022-10-28T08:27:27.895Z,30.40
2022-10-28T08:30:13.446Z,22.02
2022-10-28T08:32:59.157Z,19.55
2022-10-28T08:35:52.298Z,22.85
2022-10-28T08:38:40.513Z,26.70
2022-10-28T08:41:39.515Z,20.63
2022-10-28T08:44:45.968Z,25.60
2022-10-28T08:48:09.829Z,20.75
2022-10-28T08:51:06.141Z,25.10
2022-10-28T08:53:59.409Z,16.88
2022-10-28T08:56:49.810Z,24.00
2022-10-28T08:59:44.069Z,25.45
2022-10-28T09:02:38.257Z,26.15
2022-10-28T09:05:26.378Z,21.25
2022-10-28T09:08:26.265Z,15.77
2022-10-28T09:11:45.596Z,18.63
2022-10-28T09:14:38.673Z,29.58
2022-10-28T09:17:55.280Z,17.80
2022-10-28T09:20:59.951Z,21.85
2022-10-28T09:23:56.746Z,22.17
2022-10-28T09:26:48.383Z,24.13
2022-10-28T09:29:45.134Z,24.83
2022-10-28T09:32:45.332Z,17.13
2022-10-28T09:35:36.453Z,18.55
2022-10-28T09:38:38.031Z,24.08
2022-10-28T09:41:33.915Z,15.95
2022-10-28T09:44:22.405Z,25.63
2022-10-28T09:47:39.224Z,20.25
2022-10-28T09:50:29.613Z,21.60
2022-10-28T09:53:44.547Z,26.08
2022-10-28T09:56:30.776Z,26.98
2022-10-28T09:59:16.480Z,19.52
2022-10-28T10:02:05.659Z,22.05
2022-10-28T10:04:51.020Z,24.17
2022-10-28T10:07:40.598Z,21.08
2022-10-28T10:10:44.877Z,29.02
2022-10-28T10:13:38.905Z,24.85
2022-10-28T10:16:41.064Z,23.48
2022-10-28T10:19:26.657Z,22.33
2022-10-28T10:22:44.918Z,21.10
2022-10-28T10:25:31.137Z,21.98
2022-10-28T10:28:16.561Z,27.70
2022-10-28T10:31:07.467Z,26.40
2022-10-28T10:33:57.146Z,28.70
2022-10-28T10:36:50.843Z,25.58
2022-10-28T10:39:38.189Z,23.02
2022-10-28T10:42:25.631Z,30.30
2022-10-28T10:45:24.202Z,22.00
2022-10-28T10:48:15.191Z,31.90
2022-10-28T10:51:07.018Z,26.65
2022-10-28T10:53:56.938Z,34.58
2022-10-28T10:56:45.524Z,25.98
2022-10-28T10:59:31.714Z,20.67
2022-10-28T11:02:30.715Z,24.38
2022-10-28T11:05:24.456Z,21.23
2022-10-28T11:08:35.024Z,20.90
2022-10-28T11:11:22.284Z,21.02
2022-10-28T11:14:10.880Z,30.95
2022-10-28T11:16:58.448Z,18.73
2022-10-28T11:19:43.716Z,23.02
2022-10-28T11:22:36.934Z,20.20
2022-10-28T11:25:44.164Z,18.38
2022-10-28T11:29:07.637Z,20.50
2022-10-28T11:31:52.915Z,22.40
2022-10-28T11:34:58.483Z,25.25
2022-10-28T11:38:11.171Z,22.55
2022-10-28T11:41:22.753Z,20.25
2022-10-28T11:44:33.128Z,26.92
2022-10-28T11:47:52.584Z,19.63
2022-10-28T11:51:03.466Z,17.92
2022-10-28T11:53:56.804Z,25.80
2022-10-28T11:56:44.588Z,28.20
2022-10-28T12:00:05.785Z,22.55
2022-10-28T12:03:09.226Z,22.85
2022-10-28T12:06:06.397Z,17.40
2022-10-28T12:09:25.817Z,20.27
2022-10-28T12:12:26.359Z,24.08
2022-10-28T12:15:55.119Z,22.58
2022-10-28T12:18:59.674Z,11.13
2022-10-28T12:22:09.118Z,18.33
2022-10-28T12:24:56.633Z,27.65
2022-10-28T12:27:47.008Z,17.02
2022-10-28T12:30:40.366Z,25.15
2022-10-28T12:33:46.227Z,21.23
2022-10-28T12:36:37.235Z,23.85
2022-10-28T12:39:35.316Z,18.65
2022-10-28T12:42:42.009Z,18.95
2022-10-28T12:45:31.237Z,18.73
2022-10-28T12:48:22.536Z,17.63
2022-10-28T12:51:31.934Z,23.95
2022-10-28T12:54:28.851Z,25.33
2022-10-28T12:57:17.034Z,17.55
2022-10-28T13:00:34.831Z,19.08
2022-10-28T13:03:20.274Z,23.50
2022-10-28T13:06:30.657Z,23.92
2022-10-28T13:09:38.049Z,27.80
2022-10-28T13:12:33.802Z,17.17
2022-10-28T13:15:44.111Z,19.73
2022-10-28T13:18:58.224Z,21.30
2022-10-28T13:22:20.824Z,19.02
2022-10-28T13:25:09.995Z,14.82
2022-10-28T13:28:00.377Z,17.83
2022-10-28T13:31:00.306Z,22.75
2022-10-28T13:34:03.034Z,21.80
2022-10-28T13:37:00.187Z,18.80
2022-10-28T13:39:46.917Z,18.55
2022-10-28T13:42:47.264Z,21.23
2022-10-28T13:45:49.179Z,20.13
2022-10-28T13:48:47.185Z,17.88
2022-10-28T13:51:36.962Z,17.73
2022-10-28T13:54:28.243Z,12.30
2022-10-28T13:57:35.241Z,16.88
2022-10-28T14:00:22.193Z,18.73
2022-10-28T14:03:19.286Z,11.85
2022-10-28T14:06:05.241Z,15.23
2022-10-28T14:08:50.703Z,20.20
2022-10-28T14:11:39.364Z,21.08
2022-10-28T14:14:24.984Z,22.67
2022-10-28T14:17:21.230Z,18.15
2022-10-28T14:20:37.663Z,14.45
2022-10-28T14:24:00.579Z,22.17
2022-10-28T14:27:08.062Z,11.80
2022-10-28T14:29:56.258Z,16.52
2022-10-28T14:32:51.558Z,14.30
2022-10-28T14:38:40.092Z,15.68
2022-10-28T14:41:46.787Z,19.25
2022-10-28T14:44:47.722Z,17.33
2022-10-28T14:47:55.865Z,23.23
2022-10-28T14:50:46.942Z,24.40
2022-10-28T14:53:35.032Z,19.00
2022-10-28T14:56:30.848Z,19.65
2022-10-28T14:59:31.062Z,23.75
2022-10-28T15:02:31.664Z,23.02
2022-10-28T15:05:26.769Z,16.88
2022-10-28T15:08:12.055Z,22.27
2022-10-28T15:10:57.677Z,19.60
2022-10-28T15:13:43.383Z,16.52
2022-10-28T15:16:29.750Z,20.45
2022-10-28T15:19:20.581Z,16.30
2022-10-28T15:22:28.249Z,19.88
2022-10-28T15:25:16.672Z,19.88
2022-10-28T15:28:05.181Z,14.68
2022-10-28T15:30:51.043Z,21.17
2022-10-28T15:33:43.887Z,28.17
2022-10-28T15:36:29.320Z,25.65
2022-10-28T15:39:16.901Z,21.92
2022-10-28T15:42:36.584Z,19.42
2022-10-28T15:45:30.162Z,23.52
2022-10-28T15:48:24.034Z,21.92
2022-10-28T15:51:18.833Z,21.17
2022-10-28T15:54:23.786Z,20.38
2022-10-28T15:57:27.060Z,18.33
2022-10-28T16:00:55.696Z,25.02
2022-10-28T16:03:47.078Z,21.63
2022-10-28T16:06:38.297Z,16.58
2022-10-28T16:09:36.602Z,20.65
2022-10-28T16:12:26.634Z,24.98
2022-10-28T16:15:16.260Z,20.30
2022-10-28T16:18:01.527Z,18.90
2022-10-28T16:20:47.065Z,26.10
2022-10-28T16:23:38.732Z,24.00
2022-10-28T16:26:24.936Z,19.95
2022-10-28T16:29:10.125Z,26.25
2022-10-28T16:31:58.374Z,21.80
2022-10-28T16:34:44.122Z,22.23
2022-10-28T16:37:32.579Z,27.50
2022-10-28T16:40:49.678Z,21.50
2022-10-28T16:43:24.836Z,30.95
2022-10-28T16:46:13.042Z,24.92
2022-10-28T16:48:58.249Z,29.65
2022-10-28T16:51:45.118Z,37.22
2022-10-28T16:54:30.818Z,31.92
2022-10-28T16:57:17.587Z,33.65
2022-10-28T17:00:03.150Z,23.95
2022-10-28T17:02:50.791Z,25.20
2022-10-28T17:05:36.153Z,26.40
2022-10-28T17:08:49.044Z,28.92
2022-10-28T17:14:16.405Z,25.25
2022-10-28T17:17:02.023Z,28.17
2022-10-28T17:19:47.692Z,36.17
2022-10-28T17:22:33.250Z,35.80
2022-10-28T17:25:18.971Z,21.27
2022-10-28T17:28:04.443Z,26.73
2022-10-28T17:30:49.703Z,30.13
2022-10-28T17:33:35.476Z,28.35
2022-10-28T17:36:20.619Z,30.77
2022-10-28T17:39:06.555Z,22.45
2022-10-28T17:41:51.758Z,25.00
2022-10-28T17:44:37.376Z,29.00
2022-10-28T17:47:23.049Z,30.35
2022-10-28T17:50:08.807Z,23.65
2022-10-28T17:52:54.312Z,21.65
2022-10-28T17:55:41.728Z,26.80
2022-10-28T17:58:27.459Z,27.95
2022-10-28T18:01:13.117Z,27.27
2022-10-28T18:03:58.755Z,25.60
2022-10-28T18:06:44.211Z,19.50
2022-10-28T18:09:31.714Z,26.17
2022-10-28T18:12:17.020Z,34.03
2022-10-28T18:15:02.394Z,24.02
2022-10-28T18:17:51.055Z,28.95
2022-10-28T18:20:36.968Z,25.90
2022-10-28T18:23:23.392Z,27.13
2022-10-28T18:26:14.001Z,24.65
2022-10-28T18:29:00.167Z,22.95
2022-10-28T18:31:46.594Z,21.27
2022-10-28T18:34:32.474Z,25.02
2022-10-28T18:37:20.525Z,22.02
2022-10-28T18:40:06.767Z,27.77
2022-10-28T18:42:52.331Z,25.33
2022-10-28T18:45:37.689Z,30.67
2022-10-28T18:48:23.156Z,27.55
2022-10-28T18:51:17.389Z,24.55
2022-10-28T18:54:03.442Z,32.92
2022-10-28T18:56:49.257Z,26.98
2022-10-28T18:59:43.174Z,23.90
2022-10-28T19:02:32.985Z,32.28
2022-10-28T19:05:19.022Z,29.02
2022-10-28T19:08:04.484Z,29.48
2022-10-28T19:10:55.898Z,35.17
2022-10-28T19:13:44.232Z,33.17
2022-10-28T19:16:32.030Z,25.95
2022-10-28T19:19:17.236Z,27.73
2022-10-28T19:22:02.829Z,22.75
2022-10-28T19:24:48.429Z,22.30
2022-10-28T19:27:33.852Z,30.77
2022-10-28T19:30:19.321Z,33.15
2022-10-28T19:33:04.614Z,31.88
2022-10-28T19:35:50.302Z,33.50
2022-10-28T19:38:37.426Z,35.05
2022-10-28T19:41:25.620Z,29.48
2022-10-28T19:44:19.502Z,24.85
2022-10-28T19:47:04.803Z,30.25
2022-10-28T19:49:52.926Z,33.95
2022-10-28T19:52:38.885Z,33.97
2022-10-28T19:55:24.392Z,29.00
2022-10-28T19:58:09.824Z,34.83
2022-10-28T20:01:04.119Z,37.05
2022-10-28T20:03:53.823Z,31.53
2022-10-28T20:06:40.762Z,37.92
2022-10-28T20:09:28.958Z,33.17
2022-10-28T20:12:15.118Z,35.03
2022-10-28T20:15:00.357Z,32.25
2022-10-28T20:17:45.816Z,29.27
2022-10-28T20:20:31.322Z,36.22
2022-10-28T20:23:16.894Z,40.58
2022-10-28T20:26:08.098Z,40.50
2022-10-28T20:28:53.971Z,29.42
2022-10-28T20:31:39.178Z,33.17
2022-10-28T20:34:27.646Z,34.78
2022-10-28T20:37:19.228Z,42.33
2022-10-28T20:40:07.509Z,32.88
2022-10-28T20:42:53.564Z,32.00
2022-10-28T20:45:42.312Z,35.42
2022-10-28T20:48:29.650Z,45.97
2022-10-28T20:51:15.659Z,39.22
2022-10-28T20:54:01.904Z,34.42
2022-10-28T20:56:47.589Z,35.95
2022-10-28T20:59:35.804Z,36.78
2022-10-28T21:02:21.152Z,41.13
2022-10-28T21:05:07.086Z,34.80
2022-10-28T21:07:52.866Z,42.08
2022-10-28T21:10:39.402Z,45.63
2022-10-28T21:13:27.938Z,41.47
2022-10-28T21:16:13.558Z,49.58
2022-10-28T21:18:59.840Z,39.65
2022-10-28T21:21:54.542Z,35.95
2022-10-28T21:24:39.927Z,51.47
2022-10-28T21:27:25.346Z,43.63
2022-10-28T21:30:11.843Z,44.92
2022-10-28T21:32:57.918Z,44.38
2022-10-28T21:35:44.022Z,52.28
2022-10-28T21:38:30.198Z,43.80
2022-10-28T21:41:20.635Z,40.53
2022-10-28T21:44:06.254Z,46.83
2022-10-28T21:46:54.073Z,46.10
2022-10-28T21:49:39.587Z,40.10
2022-10-28T21:52:25.159Z,42.92
2022-10-28T21:55:20.318Z,46.08
2022-10-28T21:58:12.565Z,44.60
2022-10-28T22:01:02.631Z,55.03
2022-10-28T22:03:48.367Z,53.85
2022-10-28T22:06:36.676Z,53.95
2022-10-28T22:09:22.228Z,47.15
2022-10-28T22:12:08.129Z,40.95
2022-10-28T22:14:53.907Z,41.55
2022-10-28T22:17:39.852Z,55.55
2022-10-28T22:23:10.640Z,50.88
2022-10-28T22:26:01.677Z,45.60
2022-10-28T22:28:47.884Z,49.45
2022-10-28T22:31:33.573Z,50.88
2022-10-28T22:34:18.974Z,42.30
2022-10-28T22:37:04.355Z,45.45
2022-10-28T22:39:49.841Z,56.15
2022-10-28T22:42:35.383Z,44.55
2022-10-28T22:45:20.903Z,63.95
2022-10-28T22:48:06.456Z,55.97
2022-10-28T22:50:52.752Z,57.50
2022-10-28T22:53:39.391Z,63.08
2022-10-28T22:56:27.187Z,66.05
2022-10-28T22:59:15.584Z,63.20
2022-10-28T23:02:02.825Z,71.53
2022-10-28T23:04:48.004Z,61.42
2022-10-28T23:07:33.683Z,75.93
2022-10-28T23:10:19.660Z,69.45
2022-10-28T23:13:06.161Z,66.38
2022-10-28T23:15:51.900Z,82.43
2022-10-28T23:18:37.735Z,78.50
2022-10-28T23:21:25.339Z,79.75
2022-10-28T23:24:11.114Z,76.10
2022-10-28T23:29:41.905Z,81.07
2022-10-28T23:32:27.490Z,82.03
2022-10-28T23:35:13.113Z,69.38
2022-10-28T23:38:00.213Z,75.68
2022-10-28T23:40:54.390Z,80.55
2022-10-28T23:43:39.835Z,68.78
2022-10-28T23:46:25.502Z,70.15
2022-10-28T23:49:10.954Z,73.18
2022-10-28T23:51:56.616Z,66.25
2022-10-28T23:54:42.096Z,73.30
2022-10-28T23:57:27.746Z,65.63
